Time;durP1;ratioP1;P1;durP2;ratioP2;P2;SDS_P1;SDS_P2;PMS_P1;PMS_P2;Temp;Humidity;BMP_temperature;BMP_pressure;BME280_temperature;BME280_humidity;BME280_pressure;Samples;Min_cycle;Max_cycle;Signal;HPM_P1;HPM_P2
2021/07/14 00:01:08;;;;;;;3.90;3.50;;;14.90;99.90;;;;;;5057074;28;20186;-34
2021/07/14 00:03:34;;;;;;;4.33;3.80;;;14.90;99.90;;;;;;5056940;28;20178;-35
2021/07/14 00:05:59;;;;;;;6.47;3.40;;;14.80;99.90;;;;;;5057696;28;20827;-34
2021/07/14 00:08:25;;;;;;;5.23;3.30;;;14.80;99.90;;;;;;5057271;28;20204;-35
2021/07/14 00:10:51;;;;;;;3.63;3.20;;;14.80;99.90;;;;;;5057260;28;20642;-35
2021/07/14 00:24:01;;;;;;;4.30;3.70;;;14.60;99.90;;;;;;5056903;28;20439;-34
2021/07/14 00:26:27;;;;;;;9.17;5.27;;;14.70;99.90;;;;;;5056589;28;20424;-34
2021/07/14 00:28:53;;;;;;;4.57;4.17;;;14.60;99.90;;;;;;5058366;28;20487;-35
2021/07/14 00:31:19;;;;;;;4.60;4.20;;;14.60;99.90;;;;;;5063405;28;20484;-35
2021/07/14 00:33:46;;;;;;;6.07;4.00;;;14.60;99.90;;;;;;5060680;28;20432;-33
2021/07/14 00:36:13;;;;;;;4.90;4.40;;;14.60;99.90;;;;;;5062611;28;20477;-35
2021/07/14 00:38:39;;;;;;;5.23;4.70;;;14.60;99.90;;;;;;5064134;28;20523;-35
2021/07/14 00:41:05;;;;;;;7.03;4.57;;;14.60;99.90;;;;;;5064417;28;20412;-34
2021/07/14 00:43:32;;;;;;;7.70;4.43;;;14.60;99.90;;;;;;5064004;28;20443;-34
2021/07/14 00:46:19;;;;;;;8.70;5.90;;;14.60;99.90;;;;;;5062883;28;20680;-34
2021/07/14 00:48:45;;;;;;;6.00;3.80;;;14.50;99.90;;;;;;5058758;28;20436;-42
2021/07/14 00:51:11;;;;;;;4.97;4.57;;;14.40;99.90;;;;;;5041959;28;20569;-42
2021/07/14 00:53:37;;;;;;;5.57;5.00;;;14.40;99.90;;;;;;5059063;28;20460;-43
2021/07/14 00:56:04;;;;;;;4.77;4.37;;;14.30;99.90;;;;;;5041878;28;20177;-43
2021/07/14 00:58:31;;;;;;;5.70;3.97;;;14.30;99.90;;;;;;5058710;28;20424;-43
2021/07/14 01:00:57;;;;;;;5.43;4.93;;;14.30;99.90;;;;;;5059632;28;20428;-42
2021/07/14 01:03:26;;;;;;;4.50;3.90;;;14.20;99.90;;;;;;5058473;28;20424;-42
2021/07/14 01:05:53;;;;;;;5.00;4.60;;;14.20;99.90;;;;;;5024171;28;20443;-41
2021/07/14 01:08:28;;;;;;;6.33;4.77;;;14.20;99.90;;;;;;5058645;28;20408;-42
2021/07/14 01:11:03;;;;;;;5.20;4.50;;;14.10;99.90;;;;;;5041174;28;20697;-42
2021/07/14 01:13:37;;;;;;;5.80;5.03;;;14.00;99.90;;;;;;5040994;28;20416;-43
2021/07/14 01:16:09;;;;;;;6.30;5.07;;;13.90;99.90;;;;;;5058520;28;20512;-41
2021/07/14 01:18:41;;;;;;;8.67;6.13;;;13.70;99.90;;;;;;5024198;28;20440;-42
2021/07/14 01:21:28;;;;;;;7.70;5.90;;;13.70;99.90;;;;;;5058314;28;20429;-41
2021/07/14 01:24:34;;;;;;;6.07;5.40;;;13.70;99.90;;;;;;5041756;28;20441;-41
2021/07/14 01:27:06;;;;;;;5.67;4.77;;;13.60;99.90;;;;;;5058762;28;20485;-42
2021/07/14 01:29:34;;;;;;;5.00;4.60;;;13.50;99.90;;;;;;5040807;28;20420;-42
2021/07/14 01:32:02;;;;;;;5.70;5.10;;;13.50;99.90;;;;;;5058329;28;20878;-42
2021/07/14 01:34:29;;;;;;;6.10;5.50;;;13.50;99.90;;;;;;5058075;28;20424;-42
2021/07/14 01:36:55;;;;;;;8.50;4.93;;;13.50;99.90;;;;;;5040440;28;20758;-39
2021/07/14 01:39:22;;;;;;;7.60;6.07;;;13.50;99.90;;;;;;5040142;28;20424;-42
2021/07/14 01:41:50;;;;;;;6.13;5.53;;;13.50;99.90;;;;;;5040311;28;20424;-40
2021/07/14 01:44:18;;;;;;;5.90;5.37;;;13.50;99.90;;;;;;5058011;28;20431;-41
2021/07/14 01:46:44;;;;;;;5.70;5.20;;;13.50;99.90;;;;;;5040476;28;20439;-39
2021/07/14 01:49:13;;;;;;;6.00;5.43;;;13.60;99.90;;;;;;5039691;28;20539;-41
2021/07/14 01:51:43;;;;;;;5.83;5.33;;;13.60;99.90;;;;;;5039855;28;20559;-41
2021/07/14 01:54:10;;;;;;;5.93;5.43;;;13.50;99.90;;;;;;5039616;28;20485;-41
2021/07/14 01:56:40;;;;;;;6.60;5.23;;;13.50;99.90;;;;;;5057675;28;20439;-41
2021/07/14 01:59:07;;;;;;;6.60;5.63;;;13.50;99.90;;;;;;5057758;28;20420;-42
2021/07/14 02:01:39;;;;;;;6.73;5.40;;;13.50;99.90;;;;;;5039821;28;20497;-42
2021/07/14 02:06:52;;;;;;;6.23;5.20;;;13.70;99.90;;;;;;5042269;28;20527;-41
2021/07/14 02:09:18;;;;;;;6.93;5.80;;;13.70;99.90;;;;;;5040110;28;20731;-41
2021/07/14 02:11:47;;;;;;;7.03;5.50;;;13.70;99.90;;;;;;5057189;28;20575;-40
2021/07/14 02:14:15;;;;;;;5.57;4.93;;;13.70;99.90;;;;;;5039392;28;20859;-42
2021/07/14 02:16:42;;;;;;;7.90;5.87;;;13.80;99.90;;;;;;5039228;28;20424;-42
2021/07/14 02:19:08;;;;;;;9.60;5.63;;;13.80;99.90;;;;;;5039919;28;20432;-42
2021/07/14 02:21:35;;;;;;;6.47;5.67;;;13.80;99.90;;;;;;5040036;28;20424;-41
2021/07/14 02:24:01;;;;;;;6.73;5.23;;;13.80;99.90;;;;;;5057098;28;20692;-40
2021/07/14 02:26:30;;;;;;;7.10;5.43;;;13.70;99.90;;;;;;5056899;28;20455;-40
2021/07/14 02:28:56;;;;;;;5.13;4.73;;;13.70;99.90;;;;;;5056965;28;20416;-41
2021/07/14 02:31:23;;;;;;;8.90;5.80;;;13.80;99.90;;;;;;5056822;28;20472;-42
2021/07/14 02:33:48;;;;;;;6.50;5.90;;;13.80;99.90;;;;;;5057023;28;20197;-42
2021/07/14 02:36:15;;;;;;;6.40;5.23;;;13.80;99.90;;;;;;5057065;28;20707;-41
2021/07/14 02:38:44;;;;;;;6.70;6.00;;;13.80;99.90;;;;;;5039629;28;20430;-40
2021/07/14 02:41:22;;;;;;;5.97;5.37;;;13.70;99.90;;;;;;5056830;28;20424;-41
2021/07/14 02:43:55;;;;;;;6.40;5.80;;;13.60;99.90;;;;;;5056564;28;20723;-42
2021/07/14 02:46:24;;;;;;;7.30;6.37;;;13.60;99.90;;;;;;5056444;28;20439;-41
2021/07/14 02:48:55;;;;;;;6.70;6.00;;;13.50;99.90;;;;;;5057204;28;20420;-41
2021/07/14 02:51:23;;;;;;;13.20;7.30;;;13.50;99.90;;;;;;5038855;28;20468;-42
2021/07/14 02:53:54;;;;;;;7.03;6.33;;;13.50;99.90;;;;;;5039085;28;20401;-41
2021/07/14 02:56:21;;;;;;;7.50;6.80;;;13.40;99.90;;;;;;5022555;28;20446;-41
2021/07/14 02:59:00;;;;;;;11.60;6.20;;;13.50;99.90;;;;;;5039480;28;20412;-41
2021/07/14 03:01:28;;;;;;;12.67;6.10;;;13.50;99.90;;;;;;5038561;28;20470;-42
2021/07/14 03:03:54;;;;;;;7.97;5.73;;;13.40;99.90;;;;;;5038758;28;20448;-40
2021/07/14 03:06:21;;;;;;;6.07;5.47;;;13.40;99.90;;;;;;5039209;28;20605;-41
2021/07/14 03:08:50;;;;;;;7.07;6.10;;;13.40;99.90;;;;;;5038872;28;20427;-41
2021/07/14 03:11:17;;;;;;;9.20;5.73;;;13.30;99.90;;;;;;5037204;28;20471;-41
2021/07/14 03:13:46;;;;;;;6.07;5.47;;;13.30;99.90;;;;;;5055683;28;20428;-42
2021/07/14 03:16:13;;;;;;;6.37;5.70;;;13.30;99.90;;;;;;5056242;28;20432;-41
2021/07/14 03:18:41;;;;;;;8.00;6.00;;;13.40;99.90;;;;;;5056806;28;20423;-42
2021/07/14 03:21:07;;;;;;;10.33;6.70;;;13.40;99.90;;;;;;5038463;28;20447;-42
2021/07/14 03:23:33;;;;;;;7.37;5.70;;;13.50;99.90;;;;;;5056402;28;20416;-41
2021/07/14 03:26:00;;;;;;;6.80;6.10;;;13.60;99.90;;;;;;5056434;28;20796;-41
2021/07/14 03:28:30;;;;;;;8.17;5.70;;;13.60;99.90;;;;;;5056349;28;20606;-42
2021/07/14 03:30:56;;;;;;;6.70;5.50;;;13.60;99.90;;;;;;5039155;28;20471;-42
2021/07/14 03:33:22;;;;;;;5.40;5.00;;;13.50;99.90;;;;;;5038469;28;20447;-41
2021/07/14 03:35:48;;;;;;;6.27;5.77;;;13.40;99.90;;;;;;5055983;28;20424;-42
2021/07/14 03:38:15;;;;;;;5.40;4.93;;;13.50;99.90;;;;;;5038322;28;20204;-42
2021/07/14 03:40:42;;;;;;;6.87;6.17;;;13.50;99.90;;;;;;5055998;28;20518;-42
2021/07/14 03:43:09;;;;;;;6.60;5.90;;;13.50;99.90;;;;;;5038729;28;20408;-40
2021/07/14 03:45:37;;;;;;;6.50;5.37;;;13.50;99.90;;;;;;5056056;28;20462;-42
2021/07/14 03:48:11;;;;;;;7.20;5.70;;;13.50;99.90;;;;;;5038574;28;20435;-41
2021/07/14 03:50:38;;;;;;;10.00;5.80;;;13.50;99.90;;;;;;5056023;28;20435;-43
2021/07/14 03:53:04;;;;;;;6.10;5.60;;;13.50;99.90;;;;;;5038163;28;20472;-40
2021/07/14 03:55:30;;;;;;;6.30;5.70;;;13.50;99.90;;;;;;5055441;28;20557;-42
2021/07/14 03:57:56;;;;;;;6.33;5.60;;;13.60;99.90;;;;;;5055770;28;20529;-41
2021/07/14 04:00:21;;;;;;;6.93;6.23;;;13.50;99.90;;;;;;5038182;28;20501;-43
2021/07/14 04:02:47;;;;;;;5.53;4.80;;;13.40;99.90;;;;;;5056124;28;20443;-42
2021/07/14 04:05:15;;;;;;;6.87;6.20;;;13.40;99.90;;;;;;5041634;28;20205;-41
2021/07/14 04:07:44;;;;;;;6.13;5.40;;;13.50;99.90;;;;;;5059469;28;20204;-41
2021/07/14 04:10:10;;;;;;;5.73;5.20;;;13.50;99.90;;;;;;5040673;28;20428;-39
2021/07/14 04:12:35;;;;;;;6.23;5.63;;;13.50;99.90;;;;;;5041441;28;20913;-40
2021/07/14 04:15:02;;;;;;;6.83;6.10;;;13.60;99.90;;;;;;5058324;28;21001;-41
2021/07/14 04:17:28;;;;;;;7.83;5.77;;;13.60;99.90;;;;;;5059588;28;20560;-39
2021/07/14 04:19:54;;;;;;;6.17;5.03;;;13.50;99.90;;;;;;5058788;28;20421;-40
2021/07/14 04:22:19;;;;;;;7.10;5.20;;;13.50;99.90;;;;;;5057795;28;20424;-41
2021/07/14 04:24:45;;;;;;;8.00;5.57;;;13.50;99.90;;;;;;5039028;28;20193;-41
2021/07/14 04:27:12;;;;;;;5.60;5.10;;;13.50;99.90;;;;;;5057203;28;20182;-43
2021/07/14 04:29:38;;;;;;;5.30;4.80;;;13.50;99.90;;;;;;5057932;28;20181;-42
2021/07/14 04:32:04;;;;;;;5.43;4.93;;;13.60;99.90;;;;;;5057536;28;20491;-43
2021/07/14 04:34:29;;;;;;;5.77;5.27;;;13.60;99.90;;;;;;5057767;28;20428;-43
2021/07/14 04:36:55;;;;;;;7.20;5.53;;;13.60;99.90;;;;;;5058689;28;20440;-42
2021/07/14 04:39:21;;;;;;;6.23;5.73;;;13.60;99.90;;;;;;5058667;28;20213;-42
2021/07/14 04:41:47;;;;;;;5.87;5.10;;;13.60;99.90;;;;;;5057558;28;20455;-43
2021/07/14 04:44:18;;;;;;;6.57;5.97;;;13.70;99.90;;;;;;5057861;28;20197;-41
2021/07/14 04:46:44;;;;;;;6.53;5.43;;;13.70;99.90;;;;;;5040559;28;20178;-41
2021/07/14 04:49:11;;;;;;;10.03;6.50;;;13.70;99.90;;;;;;5057602;28;20486;-42
2021/07/14 04:51:37;;;;;;;5.90;5.27;;;13.70;99.90;;;;;;5056410;28;20464;-41
2021/07/14 04:54:03;;;;;;;10.83;5.73;;;13.80;99.90;;;;;;5055728;28;20416;-41
2021/07/14 04:56:29;;;;;;;6.33;5.73;;;13.80;99.90;;;;;;5054119;28;20162;-41
2021/07/14 04:58:54;;;;;;;5.93;4.63;;;13.90;99.90;;;;;;5054189;28;20550;-41
2021/07/14 05:01:20;;;;;;;6.40;5.07;;;14.00;99.90;;;;;;5055687;28;20431;-41
2021/07/14 05:03:47;;;;;;;5.70;5.20;;;14.10;99.90;;;;;;5056942;28;20185;-42
2021/07/14 05:06:17;;;;;;;5.80;5.20;;;14.20;99.90;;;;;;5057239;28;20173;-41
2021/07/14 05:08:44;;;;;;;6.97;5.00;;;14.30;99.90;;;;;;5056465;28;20723;-42
2021/07/14 05:11:10;;;;;;;6.67;4.63;;;14.40;99.90;;;;;;5055874;28;20448;-42
2021/07/14 05:13:36;;;;;;;5.03;4.63;;;14.40;99.90;;;;;;5055376;28;20420;-40
2021/07/14 05:16:03;;;;;;;5.00;4.30;;;14.50;99.90;;;;;;5056117;28;20482;-41
2021/07/14 05:18:28;;;;;;;5.37;4.20;;;14.50;99.90;;;;;;5057471;28;20197;-42
2021/07/14 05:20:55;;;;;;;5.07;4.57;;;14.50;99.90;;;;;;5055730;28;20421;-42
2021/07/14 05:23:20;;;;;;;5.33;4.87;;;14.60;99.90;;;;;;5054427;28;20701;-42
2021/07/14 05:25:46;;;;;;;5.37;4.60;;;14.60;99.90;;;;;;5055342;28;20201;-42
2021/07/14 05:28:12;;;;;;;5.23;4.73;;;14.60;99.90;;;;;;5055610;28;20486;-41
2021/07/14 05:30:39;;;;;;;6.77;5.63;;;14.50;99.90;;;;;;5053890;28;20522;-42
2021/07/14 05:33:05;;;;;;;6.33;5.70;;;14.40;99.90;;;;;;5055056;28;20206;-41
2021/07/14 05:35:31;;;;;;;5.00;4.57;;;14.40;99.90;;;;;;5054789;28;20723;-41
2021/07/14 05:37:57;;;;;;;7.43;4.87;;;14.50;99.90;;;;;;5055227;28;20828;-40
2021/07/14 05:40:23;;;;;;;4.50;4.10;;;14.60;99.90;;;;;;5034085;28;20409;-41
2021/07/14 05:42:49;;;;;;;4.93;4.43;;;14.70;99.90;;;;;;5053183;28;20177;-42
2021/07/14 05:45:16;;;;;;;4.80;4.40;;;14.80;99.90;;;;;;5052746;28;20416;-42
2021/07/14 05:47:42;;;;;;;5.83;5.10;;;14.80;99.90;;;;;;5054329;28;20423;-42
2021/07/14 05:50:08;;;;;;;5.73;5.23;;;14.80;99.90;;;;;;5054186;28;20470;-42
2021/07/14 05:52:34;;;;;;;5.23;4.83;;;14.80;99.90;;;;;;5036625;28;20464;-40
2021/07/14 05:55:00;;;;;;;5.10;4.67;;;14.90;99.90;;;;;;5053610;28;20656;-42
2021/07/14 05:57:26;;;;;;;5.30;4.80;;;14.90;99.90;;;;;;5052774;28;20165;-41
2021/07/14 05:59:51;;;;;;;5.97;5.37;;;14.90;99.90;;;;;;5053981;28;20169;-42
2021/07/14 06:02:17;;;;;;;6.80;5.00;;;14.90;99.90;;;;;;5036519;28;20209;-42
2021/07/14 06:04:43;;;;;;;5.70;5.10;;;14.90;99.90;;;;;;5054859;28;20568;-42
2021/07/14 06:07:08;;;;;;;5.73;5.20;;;14.80;99.90;;;;;;5055867;28;20489;-42
2021/07/14 06:09:35;;;;;;;4.63;4.23;;;14.80;99.90;;;;;;5055050;28;20259;-40
2021/07/14 06:12:00;;;;;;;5.37;4.97;;;14.80;99.90;;;;;;5054552;28;20213;-42
2021/07/14 06:14:26;;;;;;;6.03;4.70;;;15.00;99.90;;;;;;5054419;28;20422;-41
2021/07/14 06:16:52;;;;;;;4.77;4.37;;;15.10;99.90;;;;;;5055119;28;20182;-41
2021/07/14 06:19:18;;;;;;;5.37;4.97;;;15.20;99.90;;;;;;5038477;28;20265;-40
2021/07/14 06:21:45;;;;;;;5.10;4.57;;;15.30;99.90;;;;;;5055968;28;20433;-42
2021/07/14 06:24:10;;;;;;;5.07;4.67;;;15.30;99.90;;;;;;5052622;28;20431;-41
2021/07/14 06:26:36;;;;;;;4.37;3.97;;;15.40;99.90;;;;;;5053551;28;20855;-39
2021/07/14 06:29:03;;;;;;;6.80;4.47;;;15.40;99.90;;;;;;5055001;28;20182;-42
2021/07/14 06:31:32;;;;;;;4.60;4.20;;;15.50;99.90;;;;;;5053749;28;20346;-41
2021/07/14 06:33:58;;;;;;;5.30;4.63;;;15.50;99.90;;;;;;5052880;28;20504;-40
2021/07/14 06:36:23;;;;;;;4.23;3.83;;;15.60;99.90;;;;;;5053140;28;20853;-40
2021/07/14 06:38:49;;;;;;;5.30;4.00;;;15.80;99.90;;;;;;5053257;28;20276;-41
2021/07/14 06:41:18;;;;;;;4.10;3.80;;;16.00;99.90;;;;;;5054596;28;20432;-41
2021/07/14 06:43:54;;;;;;;3.80;3.50;;;16.10;99.90;;;;;;5053507;28;20219;-41
2021/07/14 06:46:20;;;;;;;4.83;4.20;;;16.20;99.90;;;;;;5053029;28;20424;-42
2021/07/14 06:48:46;;;;;;;4.53;3.97;;;16.30;99.90;;;;;;5053398;28;20408;-42
2021/07/14 06:51:12;;;;;;;4.67;4.07;;;16.40;99.90;;;;;;5055032;28;20263;-42
2021/07/14 06:53:39;;;;;;;5.73;3.80;;;16.60;99.90;;;;;;5052436;28;20550;-41
2021/07/14 06:56:05;;;;;;;6.83;4.40;;;16.50;99.90;;;;;;5053178;28;20896;-41
2021/07/14 06:58:33;;;;;;;4.70;4.13;;;16.50;99.90;;;;;;5053100;28;20412;-42
2021/07/14 07:00:59;;;;;;;4.50;4.07;;;16.50;99.90;;;;;;5035547;28;20470;-43
2021/07/14 07:03:25;;;;;;;4.23;3.90;;;16.50;99.90;;;;;;5052713;28;20408;-43
2021/07/14 07:05:51;;;;;;;4.30;3.90;;;16.60;99.90;;;;;;5035992;28;20186;-43
2021/07/14 07:08:16;;;;;;;6.60;4.27;;;16.60;99.90;;;;;;5054847;28;20534;-43
2021/07/14 07:10:43;;;;;;;4.60;4.10;;;16.70;99.90;;;;;;5055390;28;20428;-43
2021/07/14 07:13:10;;;;;;;4.67;4.27;;;16.70;99.90;;;;;;5035482;28;20679;-43
2021/07/14 07:15:36;;;;;;;4.20;3.80;;;16.70;99.90;;;;;;5052581;28;20424;-43
2021/07/14 07:18:02;;;;;;;3.73;3.43;;;16.70;99.90;;;;;;5053890;28;20438;-42
2021/07/14 07:20:29;;;;;;;4.27;3.87;;;16.60;99.90;;;;;;5055847;28;20453;-43
2021/07/14 07:22:55;;;;;;;4.83;4.07;;;16.70;99.90;;;;;;5053967;28;20519;-42
2021/07/14 07:25:21;;;;;;;4.80;4.13;;;16.80;99.90;;;;;;5054078;28;20428;-41
2021/07/14 07:27:48;;;;;;;4.20;3.90;;;16.70;99.90;;;;;;5052799;28;20444;-41
2021/07/14 07:30:15;;;;;;;4.90;4.10;;;16.90;99.90;;;;;;5052036;28;20408;-41
2021/07/14 07:32:41;;;;;;;4.10;3.53;;;17.00;99.90;;;;;;5051694;28;20674;-41
2021/07/14 07:35:08;;;;;;;4.60;3.63;;;17.20;99.90;;;;;;5051619;28;20941;-42
2021/07/14 07:37:34;;;;;;;3.80;3.50;;;17.20;99.60;;;;;;5053499;28;20880;-41
2021/07/14 07:40:00;;;;;;;4.00;3.60;;;17.30;99.60;;;;;;5056710;28;20546;-42
2021/07/14 07:42:26;;;;;;;4.40;4.00;;;17.30;99.80;;;;;;5037663;28;20254;-40
2021/07/14 07:44:52;;;;;;;4.80;4.30;;;17.50;99.50;;;;;;5054851;28;20200;-41
2021/07/14 07:47:17;;;;;;;4.67;3.87;;;17.60;99.50;;;;;;5054741;28;20831;-40
2021/07/14 07:49:46;;;;;;;4.33;3.93;;;17.70;98.60;;;;;;5055893;28;20177;-41
2021/07/14 07:52:13;;;;;;;4.43;4.03;;;17.70;98.20;;;;;;5056639;28;20478;-42
2021/07/14 07:54:39;;;;;;;4.57;4.17;;;17.70;98.20;;;;;;5056604;28;20450;-42
2021/07/14 07:57:06;;;;;;;6.90;4.23;;;17.60;98.40;;;;;;5038712;28;20447;-42
2021/07/14 07:59:32;;;;;;;3.90;3.60;;;17.50;98.90;;;;;;5056495;28;20420;-42
2021/07/14 08:01:58;;;;;;;5.10;4.00;;;17.60;99.10;;;;;;5056409;28;20423;-43
2021/07/14 08:04:24;;;;;;;3.77;3.47;;;17.60;98.80;;;;;;5057728;28;20447;-42
2021/07/14 08:06:50;;;;;;;4.50;3.97;;;17.60;99.20;;;;;;5057697;28;20687;-43
2021/07/14 08:09:16;;;;;;;5.00;3.70;;;17.40;99.10;;;;;;5057441;28;20447;-43
2021/07/14 08:11:42;;;;;;;4.50;4.10;;;17.40;99.10;;;;;;5057843;28;20236;-42
2021/07/14 08:14:08;;;;;;;3.63;3.33;;;17.40;98.90;;;;;;5059344;28;20240;-42
2021/07/14 08:16:33;;;;;;;4.80;4.40;;;17.40;99.40;;;;;;5058112;28;20416;-41
2021/07/14 08:18:59;;;;;;;3.87;3.57;;;17.30;99.20;;;;;;5056386;28;20181;-42
2021/07/14 08:21:25;;;;;;;5.07;4.40;;;17.40;99.40;;;;;;5078676;28;20269;-42
2021/07/14 08:23:52;;;;;;;5.60;3.90;;;17.50;98.70;;;;;;5078324;28;20878;-42
2021/07/14 08:26:18;;;;;;;3.97;3.67;;;17.40;98.90;;;;;;5078323;28;20556;-43
2021/07/14 08:28:44;;;;;;;4.93;4.53;;;17.30;98.90;;;;;;5059931;28;20500;-42
2021/07/14 08:31:10;;;;;;;7.27;3.70;;;17.20;99.10;;;;;;5076890;28;20565;-43
2021/07/14 08:33:37;;;;;;;4.70;4.20;;;17.10;99.20;;;;;;5077369;28;20468;-42
2021/07/14 08:36:03;;;;;;;4.70;4.37;;;17.30;99.50;;;;;;5075968;28;20408;-43
2021/07/14 08:38:29;;;;;;;5.47;5.03;;;17.30;99.40;;;;;;5075424;28;20430;-42
2021/07/14 08:40:58;;;;;;;5.27;4.77;;;17.10;99.60;;;;;;5058903;28;20508;-41
2021/07/14 08:43:31;;;;;;;4.87;4.50;;;17.20;99.80;;;;;;5076194;28;20860;-40
2021/07/14 08:45:58;;;;;;;4.37;3.97;;;17.30;99.80;;;;;;5075233;28;20857;-42
2021/07/14 08:48:25;;;;;;;5.13;4.60;;;17.30;99.80;;;;;;5074218;28;20431;-43
2021/07/14 08:50:52;;;;;;;4.70;4.30;;;17.60;99.50;;;;;;5057267;28;20698;-42
2021/07/14 08:53:20;;;;;;;4.80;4.40;;;17.80;99.00;;;;;;5076587;28;20469;-40
2021/07/14 08:55:47;;;;;;;4.50;4.10;;;17.80;98.80;;;;;;5077104;28;20462;-41
2021/07/14 08:58:15;;;;;;;4.27;3.87;;;17.60;99.40;;;;;;5059319;28;20423;-42
2021/07/14 09:00:41;;;;;;;5.10;4.60;;;17.90;99.60;;;;;;5076535;28;20438;-38
2021/07/14 09:03:08;;;;;;;9.23;4.47;;;18.00;98.70;;;;;;5075895;28;20465;-40
2021/07/14 09:05:34;;;;;;;5.53;4.57;;;18.20;98.40;;;;;;5075394;28;20530;-42
2021/07/14 09:08:00;;;;;;;4.43;4.03;;;18.30;98.20;;;;;;5058551;28;20542;-42
2021/07/14 09:10:26;;;;;;;4.97;3.80;;;18.40;98.40;;;;;;5056301;28;20837;-41
2021/07/14 09:12:57;;;;;;;5.30;4.80;;;18.40;98.30;;;;;;5041385;28;20521;-41
2021/07/14 09:15:27;;;;;;;8.37;5.70;;;18.50;98.40;;;;;;5076135;28;20447;-40
2021/07/14 09:17:56;;;;;;;6.90;4.63;;;18.60;97.90;;;;;;5076298;28;20797;-42
2021/07/14 09:20:28;;;;;;;5.53;5.03;;;18.40;98.10;;;;;;5056901;28;20740;-40
2021/07/14 09:23:12;;;;;;;4.90;4.50;;;18.40;97.90;;;;;;5074738;28;20431;-41
2021/07/14 09:25:46;;;;;;;5.63;5.10;;;18.00;99.00;;;;;;5075274;28;20438;-41
2021/07/14 09:28:17;;;;;;;8.17;5.03;;;18.10;99.20;;;;;;5058254;28;20415;-43
2021/07/14 09:30:46;;;;;;;6.13;5.10;;;18.10;98.90;;;;;;5074820;28;20463;-44
2021/07/14 09:33:14;;;;;;;5.40;4.90;;;18.20;98.80;;;;;;5055694;28;20657;-43
2021/07/14 09:35:47;;;;;;;5.53;5.03;;;18.50;98.70;;;;;;5075371;28;20706;-42
2021/07/14 09:38:17;;;;;;;4.93;4.43;;;18.40;98.50;;;;;;5076030;28;20419;-41
2021/07/14 09:40:45;;;;;;;5.97;5.37;;;18.30;98.80;;;;;;5075399;28;20429;-41
2021/07/14 09:43:11;;;;;;;6.03;5.53;;;18.60;98.50;;;;;;5075055;28;20450;-42
2021/07/14 09:45:37;;;;;;;4.87;4.47;;;18.90;98.10;;;;;;5076026;28;20760;-42
2021/07/14 09:48:07;;;;;;;5.40;4.90;;;19.20;97.80;;;;;;5076022;28;20461;-42
2021/07/14 09:50:41;;;;;;;6.87;5.13;;;19.50;97.10;;;;;;5075512;28;20169;-43
2021/07/14 09:53:09;;;;;;;5.73;5.13;;;19.60;96.60;;;;;;5059334;28;20467;-40
2021/07/14 09:55:36;;;;;;;8.13;5.20;;;19.90;96.20;;;;;;5057190;28;20419;-42
2021/07/14 09:58:16;;;;;;;5.27;4.40;;;20.00;96.30;;;;;;5073931;28;20419;-43
2021/07/14 10:00:50;;;;;;;5.63;4.57;;;20.00;96.40;;;;;;5074708;28;20439;-40
2021/07/14 10:03:22;;;;;;;4.50;4.13;;;20.40;95.50;;;;;;5057079;28;20492;-44
2021/07/14 10:05:48;;;;;;;5.20;4.00;;;20.50;95.40;;;;;;5057636;28;20423;-42
2021/07/14 10:08:16;;;;;;;4.57;3.67;;;20.60;95.20;;;;;;5076069;28;20434;-42
2021/07/14 10:10:42;;;;;;;4.80;4.10;;;20.60;94.20;;;;;;5075609;28;20506;-42
2021/07/14 10:13:08;;;;;;;4.60;3.63;;;20.60;94.90;;;;;;5075050;28;20590;-43
2021/07/14 10:15:35;;;;;;;4.13;3.60;;;20.70;94.80;;;;;;5074151;28;20443;-44
2021/07/14 10:18:01;;;;;;;3.37;3.10;;;21.10;94.50;;;;;;5072902;28;20450;-44
2021/07/14 10:20:37;;;;;;;4.27;3.87;;;21.30;93.10;;;;;;5073842;28;20496;-44
2021/07/14 10:23:04;;;;;;;4.00;3.70;;;21.40;93.40;;;;;;5058518;28;20419;-44
2021/07/14 10:25:32;;;;;;;3.63;3.33;;;21.20;93.70;;;;;;5056242;28;20789;-43
2021/07/14 10:27:59;;;;;;;4.20;3.80;;;21.30;93.30;;;;;;5055994;28;20431;-44
2021/07/14 10:30:25;;;;;;;3.67;3.20;;;21.30;93.00;;;;;;5073845;28;20415;-44
2021/07/14 10:32:52;;;;;;;4.87;2.87;;;21.70;92.80;;;;;;5073056;28;20785;-44
2021/07/14 10:35:21;;;;;;;5.07;3.27;;;21.60;92.20;;;;;;5074047;28;20437;-44
2021/07/14 10:37:52;;;;;;;3.20;2.90;;;22.80;91.40;;;;;;5074143;28;20416;-44
2021/07/14 10:40:20;;;;;;;4.10;2.83;;;23.20;88.20;;;;;;5056110;28;20717;-44
2021/07/14 10:42:47;;;;;;;2.97;2.77;;;23.30;88.50;;;;;;5056758;28;20419;-45
2021/07/14 10:45:13;;;;;;;2.60;2.40;;;23.60;87.50;;;;;;5074790;28;20431;-42
2021/07/14 10:47:40;;;;;;;2.77;2.50;;;24.00;87.30;;;;;;5073832;28;20904;-45
2021/07/14 10:50:10;;;;;;;2.20;1.97;;;24.80;83.40;;;;;;5055568;28;20446;-44
2021/07/14 10:52:37;;;;;;;2.13;1.93;;;24.90;80.60;;;;;;5056040;28;20478;-44
2021/07/14 10:55:04;;;;;;;2.80;2.50;;;24.10;78.90;;;;;;5074211;28;20945;-43
2021/07/14 10:57:33;;;;;;;2.03;1.83;;;23.70;81.00;;;;;;5072918;28;20415;-44
2021/07/14 11:00:00;;;;;;;2.20;1.90;;;23.90;80.30;;;;;;5073689;28;20423;-36
2021/07/14 11:02:43;;;;;;;2.40;2.20;;;22.90;78.40;;;;;;5056642;28;20747;-36
2021/07/14 11:05:10;;;;;;;2.70;2.50;;;22.50;81.60;;;;;;5023145;28;20925;-36
2021/07/14 11:07:37;;;;;;;2.20;2.00;;;23.10;82.90;;;;;;5072854;28;20414;-36
2021/07/14 11:10:31;;;;;;;2.57;2.20;;;23.20;80.90;;;;;;5072784;28;20415;-36
2021/07/14 11:12:58;;;;;;;4.63;1.93;;;24.30;81.10;;;;;;5074086;28;20901;-36
2021/07/14 11:15:35;;;;;;;2.43;2.20;;;24.30;79.80;;;;;;5074009;28;20449;-36
2021/07/14 11:18:22;;;;;;;2.23;2.03;;;24.50;79.40;;;;;;5073597;28;20575;-37
2021/07/14 11:20:48;;;;;;;2.83;1.70;;;24.90;78.00;;;;;;5075049;28;20427;-36
2021/07/14 11:23:25;;;;;;;2.97;2.10;;;24.90;75.80;;;;;;5075460;28;20569;-34
2021/07/14 11:25:54;;;;;;;2.07;1.90;;;25.60;76.20;;;;;;5074671;28;20500;-35
2021/07/14 11:28:21;;;;;;;2.20;2.00;;;25.40;75.20;;;;;;5073745;28;20439;-35
2021/07/14 11:30:49;;;;;;;3.13;2.37;;;25.40;76.40;;;;;;5075149;28;20493;-35
2021/07/14 11:33:32;;;;;;;2.43;2.03;;;25.30;72.30;;;;;;5073289;28;20502;-35
2021/07/14 11:36:07;;;;;;;2.53;2.33;;;24.60;72.80;;;;;;5073333;28;20431;-35
2021/07/14 11:38:55;;;;;;;2.83;2.00;;;23.80;75.20;;;;;;5056397;28;20435;-35
2021/07/14 11:41:26;;;;;;;2.03;1.73;;;23.70;77.30;;;;;;5056942;28;20439;-36
2021/07/14 11:43:56;;;;;;;2.50;2.30;;;23.80;76.70;;;;;;5074562;28;20445;-36
2021/07/14 11:46:30;;;;;;;2.90;2.30;;;24.30;76.30;;;;;;5056448;28;20589;-35
2021/07/14 11:49:22;;;;;;;2.10;1.90;;;24.50;75.00;;;;;;5070831;28;20419;-35
2021/07/14 11:51:48;;;;;;;2.63;2.20;;;24.90;73.80;;;;;;5049339;28;20554;-36
2021/07/14 11:54:24;;;;;;;2.20;2.00;;;24.80;73.90;;;;;;5050708;28;20520;-38
2021/07/14 11:56:51;;;;;;;3.53;1.80;;;25.20;74.30;;;;;;5018382;28;20991;-36
2021/07/14 11:59:28;;;;;;;2.30;2.10;;;25.00;74.30;;;;;;5034096;28;20435;-37
2021/07/14 12:01:59;;;;;;;2.10;1.57;;;25.30;73.30;;;;;;5054423;28;20812;-37
2021/07/14 12:04:26;;;;;;;1.57;1.47;;;25.60;71.30;;;;;;5054169;28;20432;-37
2021/07/14 12:07:07;;;;;;;2.40;1.83;;;25.60;69.90;;;;;;5036343;28;20431;-37
2021/07/14 12:09:35;;;;;;;2.17;1.97;;;25.00;71.90;;;;;;5053637;28;20535;-35
2021/07/14 12:12:05;;;;;;;3.53;2.30;;;24.70;74.00;;;;;;5036278;28;20545;-36
2021/07/14 12:14:34;;;;;;;1.70;1.53;;;24.80;75.00;;;;;;5035280;28;20463;-36
2021/07/14 12:17:12;;;;;;;1.93;1.73;;;25.00;72.80;;;;;;5052668;28;20416;-36
2021/07/14 12:19:48;;;;;;;2.63;2.20;;;25.00;73.00;;;;;;5052601;28;20455;-35
2021/07/14 12:22:15;;;;;;;1.83;1.73;;;25.10;73.20;;;;;;5052312;28;20497;-37
2021/07/14 12:24:42;;;;;;;2.00;1.50;;;24.90;73.40;;;;;;5054305;28;20498;-36
2021/07/14 12:27:17;;;;;;;2.27;1.87;;;25.30;72.30;;;;;;5040196;28;20861;-35
2021/07/14 12:29:51;;;;;;;2.17;1.90;;;25.70;70.60;;;;;;5022737;28;20535;-37
2021/07/14 12:32:39;;;;;;;2.03;1.83;;;25.60;70.50;;;;;;5024488;28;20579;-35
2021/07/14 12:35:10;;;;;;;2.00;1.80;;;25.40;72.40;;;;;;5034127;28;20861;-36
2021/07/14 12:37:55;;;;;;;2.57;1.80;;;25.40;70.10;;;;;;5017590;28;20417;-34
2021/07/14 12:40:33;;;;;;;3.47;1.97;;;26.00;70.00;;;;;;5004655;28;20510;-35
2021/07/14 12:43:08;;;;;;;4.50;1.77;;;25.60;69.60;;;;;;5020357;28;20467;-39
2021/07/14 12:45:38;;;;;;;1.60;1.50;;;25.90;68.10;;;;;;5038144;28;20704;-36
2021/07/14 12:48:10;;;;;;;2.23;1.70;;;25.50;65.60;;;;;;5001958;28;20458;-36
2021/07/14 12:50:39;;;;;;;3.30;2.13;;;24.60;70.20;;;;;;5017888;28;20428;-35
2021/07/14 12:53:05;;;;;;;1.73;1.63;;;25.00;68.30;;;;;;5037103;28;20484;-36
2021/07/14 12:55:34;;;;;;;1.67;1.57;;;24.60;68.80;;;;;;5036382;28;20399;-35
2021/07/14 12:58:09;;;;;;;1.53;1.43;;;24.10;69.50;;;;;;5036264;28;20441;-35
2021/07/14 13:00:37;;;;;;;2.60;1.40;;;24.30;69.20;;;;;;5018813;28;20507;-35
2021/07/14 13:03:07;;;;;;;1.60;1.50;;;24.60;70.20;;;;;;5037953;28;20421;-37
2021/07/14 13:05:34;;;;;;;1.67;1.57;;;24.60;68.50;;;;;;5018978;28;20473;-36